Time;durP1;ratioP1;P1;durP2;ratioP2;P2;SDS_P1;SDS_P2;PMS_P1;PMS_P2;Temp;Humidity;BMP_temperature;BMP_pressure;BME280_temperature;BME280_humidity;BME280_pressure;Samples;Min_cycle;Max_cycle;Signal;HPM_P1;HPM_P2
2020/12/24 00:01:09;;;;;;;8.50;2.45;;;;;;;;;;5052798;28;20405;-82
2020/12/24 00:03:35;;;;;;;8.35;2.30;;;;;;;;;;5062915;28;20399;-82
2020/12/24 00:06:01;;;;;;;4.82;1.70;;;;;;;;;;5051714;28;20415;-82
2020/12/24 00:08:27;;;;;;;9.40;2.30;;;;;;;;;;5051930;28;20459;-82
2020/12/24 00:10:52;;;;;;;6.90;1.90;;;;;;;;;;5052676;28;20408;-82
2020/12/24 00:13:18;;;;;;;6.20;1.80;;;;;;;;;;5051701;28;20540;-82
2020/12/24 00:15:44;;;;;;;6.97;2.00;;;;;;;;;;5052342;28;20388;-82
2020/12/24 00:18:10;;;;;;;8.40;2.28;;;;;;;;;;5068205;28;20440;-82
2020/12/24 00:20:37;;;;;;;6.03;2.03;;;;;;;;;;5064777;28;20400;-82
2020/12/24 00:23:03;;;;;;;6.00;1.90;;;;;;;;;;5061726;28;20411;-82
2020/12/24 00:25:29;;;;;;;6.85;1.90;;;;;;;;;;5045910;28;20938;-82
2020/12/24 00:27:55;;;;;;;6.63;2.08;;;;;;;;;;5058566;28;20411;-82
2020/12/24 00:30:21;;;;;;;8.20;2.35;;;;;;;;;;5050419;28;20775;-82
2020/12/24 00:32:47;;;;;;;9.85;2.60;;;;;;;;;;5050823;28;20763;-82
2020/12/24 00:35:13;;;;;;;8.32;2.30;;;;;;;;;;5050364;28;20411;-82
2020/12/24 00:37:39;;;;;;;9.07;2.58;;;;;;;;;;5067674;28;20412;-82
2020/12/24 00:40:06;;;;;;;7.40;2.22;;;;;;;;;;5068578;28;20389;-82
2020/12/24 00:42:32;;;;;;;7.22;2.30;;;;;;;;;;5049844;28;20461;-82
2020/12/24 00:44:58;;;;;;;9.25;2.67;;;;;;;;;;5050270;28;20958;-82
2020/12/24 00:47:24;;;;;;;8.40;2.63;;;;;;;;;;5049997;28;20490;-82
2020/12/24 00:49:51;;;;;;;10.23;2.85;;;;;;;;;;5068339;28;20618;-82
2020/12/24 00:52:17;;;;;;;10.00;2.65;;;;;;;;;;5047559;28;20438;-81
2020/12/24 00:54:43;;;;;;;7.63;2.40;;;;;;;;;;5049679;28;20396;-81
2020/12/24 00:57:09;;;;;;;8.37;2.60;;;;;;;;;;5049296;28;20853;-82
2020/12/24 00:59:35;;;;;;;9.18;2.70;;;;;;;;;;5050496;28;20380;-82
2020/12/24 01:02:01;;;;;;;6.97;2.90;;;;;;;;;;5049778;28;20455;-82
2020/12/24 01:04:27;;;;;;;7.17;2.87;;;;;;;;;;5068270;28;20457;-81
2020/12/24 01:06:53;;;;;;;11.40;3.00;;;;;;;;;;5049592;28;20403;-81
2020/12/24 01:09:19;;;;;;;8.90;3.10;;;;;;;;;;5047099;28;20416;-81
2020/12/24 01:11:45;;;;;;;7.40;2.80;;;;;;;;;;5050216;28;20400;-81
2020/12/24 01:14:11;;;;;;;7.25;3.15;;;;;;;;;;5049337;28;20430;-82
2020/12/24 01:16:37;;;;;;;9.98;2.97;;;;;;;;;;5067105;28;20395;-82
2020/12/24 01:19:03;;;;;;;9.18;3.28;;;;;;;;;;5050115;28;20404;-82
2020/12/24 01:21:29;;;;;;;9.13;3.58;;;;;;;;;;5065623;28;20399;-81
2020/12/24 01:23:55;;;;;;;9.40;3.45;;;;;;;;;;5048824;28;20469;-81
2020/12/24 01:26:21;;;;;;;9.25;3.50;;;;;;;;;;5066595;28;20392;-81
2020/12/24 01:28:47;;;;;;;10.15;3.50;;;;;;;;;;5066181;28;20465;-82
2020/12/24 01:31:13;;;;;;;8.18;3.60;;;;;;;;;;5049047;28;20545;-82
2020/12/24 01:33:39;;;;;;;8.55;3.50;;;;;;;;;;5067001;28;21061;-82
2020/12/24 01:36:05;;;;;;;8.77;3.20;;;;;;;;;;5049627;28;20475;-82
2020/12/24 01:38:31;;;;;;;13.13;3.80;;;;;;;;;;5067575;28;20891;-82
2020/12/24 01:40:58;;;;;;;12.85;3.70;;;;;;;;;;5048849;28;20403;-82
2020/12/24 01:43:24;;;;;;;11.00;3.33;;;;;;;;;;5066636;28;20758;-82
2020/12/24 01:45:54;;;;;;;8.38;3.42;;;;;;;;;;5035772;28;20403;-82
2020/12/24 01:48:21;;;;;;;14.20;4.18;;;;;;;;;;5047374;28;20404;-82
2020/12/24 01:50:46;;;;;;;12.30;3.40;;;;;;;;;;5049159;28;20431;-81
2020/12/24 01:53:18;;;;;;;10.57;3.40;;;;;;;;;;5046540;28;20399;-82
2020/12/24 01:55:44;;;;;;;14.97;4.00;;;;;;;;;;5047275;28;20550;-81
2020/12/24 01:58:10;;;;;;;12.57;3.67;;;;;;;;;;5048694;28;20399;-81
2020/12/24 02:00:36;;;;;;;14.23;3.90;;;;;;;;;;5049630;28;20380;-82
2020/12/24 02:03:02;;;;;;;12.70;4.40;;;;;;;;;;5048250;28;20422;-81
2020/12/24 02:05:28;;;;;;;10.20;3.70;;;;;;;;;;5048523;28;20411;-81
2020/12/24 02:07:54;;;;;;;11.18;3.55;;;;;;;;;;5048817;28;20404;-82
2020/12/24 02:10:21;;;;;;;10.27;3.38;;;;;;;;;;5066226;28;20420;-81
2020/12/24 02:12:46;;;;;;;11.95;3.67;;;;;;;;;;5066140;28;20416;-81
2020/12/24 02:15:12;;;;;;;12.68;3.40;;;;;;;;;;5048307;28;20414;-81
2020/12/24 02:17:38;;;;;;;11.40;3.38;;;;;;;;;;5048533;28;20407;-81
2020/12/24 02:20:04;;;;;;;12.23;3.20;;;;;;;;;;5065253;28;20427;-82
2020/12/24 02:22:30;;;;;;;14.48;3.60;;;;;;;;;;5064907;28;20433;-82
2020/12/24 02:24:56;;;;;;;15.30;3.78;;;;;;;;;;5065340;28;20396;-81
2020/12/24 02:27:22;;;;;;;11.90;3.42;;;;;;;;;;5066914;28;20885;-81
2020/12/24 02:29:48;;;;;;;11.63;3.37;;;;;;;;;;5048221;28;20396;-81
2020/12/24 02:32:14;;;;;;;8.70;3.33;;;;;;;;;;5047241;28;20400;-81
2020/12/24 02:34:40;;;;;;;9.50;3.65;;;;;;;;;;5065791;28;20503;-81
2020/12/24 02:37:08;;;;;;;7.90;4.00;;;;;;;;;;5048423;28;20384;-80
2020/12/24 02:39:34;;;;;;;7.40;4.05;;;;;;;;;;5047646;28;20403;-81
2020/12/24 02:42:00;;;;;;;8.05;4.25;;;;;;;;;;5050226;28;20497;-80
2020/12/24 02:44:26;;;;;;;6.45;4.03;;;;;;;;;;5046412;28;20407;-80
2020/12/24 02:46:52;;;;;;;7.70;4.85;;;;;;;;;;5062159;28;20510;-80
2020/12/24 02:49:18;;;;;;;7.32;4.88;;;;;;;;;;5047806;28;20910;-80
2020/12/24 02:51:44;;;;;;;8.60;4.63;;;;;;;;;;5062330;28;20411;-80
2020/12/24 02:54:10;;;;;;;6.03;4.10;;;;;;;;;;5064783;28;21018;-80
2020/12/24 02:56:36;;;;;;;7.75;4.20;;;;;;;;;;5048518;28;20459;-81
2020/12/24 02:59:02;;;;;;;5.57;3.35;;;;;;;;;;5047464;28;20380;-81
2020/12/24 03:01:28;;;;;;;4.60;2.40;;;;;;;;;;5066505;28;20752;-80
2020/12/24 03:03:54;;;;;;;4.22;2.72;;;;;;;;;;5048176;28;20450;-81
2020/12/24 03:06:20;;;;;;;5.10;2.50;;;;;;;;;;5066059;28;20400;-81
2020/12/24 03:08:48;;;;;;;4.90;2.30;;;;;;;;;;5048025;28;20456;-81
2020/12/24 03:11:14;;;;;;;3.70;2.17;;;;;;;;;;5065524;28;20450;-82
2020/12/24 03:13:40;;;;;;;4.00;2.43;;;;;;;;;;5048204;28;20400;-81
2020/12/24 03:16:06;;;;;;;4.47;2.40;;;;;;;;;;5065440;28;20412;-81
2020/12/24 03:18:32;;;;;;;7.63;2.78;;;;;;;;;;5038807;28;20732;-81
2020/12/24 03:20:58;;;;;;;4.63;2.80;;;;;;;;;;5047288;28;20411;-82
2020/12/24 03:23:24;;;;;;;4.63;2.95;;;;;;;;;;5045387;28;20391;-82
2020/12/24 03:25:50;;;;;;;3.80;2.50;;;;;;;;;;5045899;28;20399;-82
2020/12/24 03:28:16;;;;;;;3.88;2.58;;;;;;;;;;5052560;28;20797;-82
2020/12/24 03:30:42;;;;;;;4.55;2.60;;;;;;;;;;5052930;28;20424;-82
2020/12/24 03:33:08;;;;;;;3.73;2.30;;;;;;;;;;5070841;28;20432;-81
2020/12/24 03:35:34;;;;;;;4.00;2.55;;;;;;;;;;5070302;28;20418;-82
2020/12/24 03:38:00;;;;;;;3.80;2.08;;;;;;;;;;5071058;28;20376;-82
2020/12/24 03:40:25;;;;;;;3.57;1.80;;;;;;;;;;5049028;28;20914;-81
2020/12/24 03:42:51;;;;;;;3.50;1.77;;;;;;;;;;5052979;28;20392;-82
2020/12/24 03:45:17;;;;;;;2.35;1.38;;;;;;;;;;5051634;28;20473;-82
2020/12/24 03:47:44;;;;;;;2.53;1.35;;;;;;;;;;5073556;28;20917;-82
2020/12/24 03:50:10;;;;;;;2.53;1.00;;;;;;;;;;5052145;28;20410;-81
2020/12/24 03:52:36;;;;;;;3.13;1.27;;;;;;;;;;5050780;28;20387;-80
2020/12/24 03:55:01;;;;;;;2.08;0.90;;;;;;;;;;5051594;28;20392;-81
2020/12/24 03:57:27;;;;;;;1.80;0.80;;;;;;;;;;5069994;28;20443;-82
2020/12/24 03:59:53;;;;;;;1.38;0.88;;;;;;;;;;5053427;28;20375;-82
2020/12/24 04:02:19;;;;;;;1.75;0.80;;;;;;;;;;5072574;28;20975;-82
2020/12/24 04:04:45;;;;;;;2.63;0.80;;;;;;;;;;5075489;28;20920;-81
2020/12/24 04:07:11;;;;;;;1.92;0.80;;;;;;;;;;5055237;28;20909;-81
2020/12/24 04:09:37;;;;;;;1.73;0.68;;;;;;;;;;5056722;28;20419;-81
2020/12/24 04:12:03;;;;;;;1.60;0.65;;;;;;;;;;5056475;28;20457;-81
2020/12/24 04:14:30;;;;;;;1.42;0.52;;;;;;;;;;5056325;28;20873;-81
2020/12/24 04:16:56;;;;;;;0.75;0.50;;;;;;;;;;5056125;28;21070;-81
2020/12/24 04:19:22;;;;;;;1.50;0.50;;;;;;;;;;5056551;28;20391;-81
2020/12/24 04:21:48;;;;;;;1.45;0.68;;;;;;;;;;5055178;28;21178;-81
2020/12/24 04:24:14;;;;;;;1.85;0.70;;;;;;;;;;5056227;28;20380;-81
2020/12/24 04:26:40;;;;;;;1.00;0.40;;;;;;;;;;5070908;28;21167;-81
2020/12/24 04:29:06;;;;;;;0.90;0.40;;;;;;;;;;5056467;28;20438;-82
2020/12/24 04:31:32;;;;;;;1.05;0.40;;;;;;;;;;5074220;28;20430;-81
2020/12/24 04:33:58;;;;;;;1.48;0.55;;;;;;;;;;5074125;28;20383;-81
2020/12/24 04:36:24;;;;;;;0.70;0.50;;;;;;;;;;5055858;28;20391;-81
2020/12/24 04:38:50;;;;;;;0.88;0.50;;;;;;;;;;5055994;28;20386;-82
2020/12/24 04:41:16;;;;;;;1.60;0.50;;;;;;;;;;5073394;28;20762;-81
2020/12/24 04:43:42;;;;;;;0.68;0.50;;;;;;;;;;5056048;28;20384;-81
2020/12/24 04:46:08;;;;;;;1.70;0.50;;;;;;;;;;5055416;28;21011;-81
2020/12/24 04:48:34;;;;;;;1.40;0.57;;;;;;;;;;5073625;28;20396;-81
2020/12/24 04:51:02;;;;;;;1.38;0.60;;;;;;;;;;5071350;28;20417;-82
2020/12/24 04:53:28;;;;;;;2.20;0.68;;;;;;;;;;5054441;28;20906;-81
2020/12/24 04:55:54;;;;;;;1.73;0.60;;;;;;;;;;5056419;28;20471;-82
2020/12/24 04:58:21;;;;;;;1.90;0.70;;;;;;;;;;5055776;28;20407;-82
2020/12/24 05:00:47;;;;;;;1.27;0.60;;;;;;;;;;5073551;28;20395;-82
2020/12/24 05:03:15;;;;;;;1.80;0.60;;;;;;;;;;5073661;28;20474;-82
2020/12/24 05:05:41;;;;;;;2.25;0.60;;;;;;;;;;5055646;28;20387;-82
2020/12/24 05:08:08;;;;;;;1.02;0.52;;;;;;;;;;5055895;28;20478;-82
2020/12/24 05:10:35;;;;;;;2.40;0.60;;;;;;;;;;5067996;28;20412;-82
2020/12/24 05:13:14;;;;;;;3.20;0.70;;;;;;;;;;5065722;28;20399;-82
2020/12/24 05:15:40;;;;;;;2.65;0.52;;;;;;;;;;5049793;28;20824;-82
2020/12/24 05:18:13;;;;;;;1.67;0.80;;;;;;;;;;5073678;28;20459;-82
2020/12/24 05:20:39;;;;;;;1.83;0.60;;;;;;;;;;5069030;28;20443;-82
2020/12/24 05:23:26;;;;;;;3.63;0.85;;;;;;;;;;5046994;28;20810;-82
2020/12/24 05:25:52;;;;;;;2.42;0.90;;;;;;;;;;5049133;28;20422;-82
2020/12/24 05:28:22;;;;;;;1.93;0.80;;;;;;;;;;5049201;28;20413;-82
2020/12/24 05:30:48;;;;;;;2.47;0.75;;;;;;;;;;5067274;28;20452;-82
2020/12/24 05:33:26;;;;;;;3.00;0.70;;;;;;;;;;5067097;28;20400;-81
2020/12/24 05:35:52;;;;;;;1.73;0.68;;;;;;;;;;5050252;28;20455;-81
2020/12/24 05:38:31;;;;;;;2.25;0.80;;;;;;;;;;5038934;28;20626;-82
2020/12/24 05:40:57;;;;;;;2.17;0.77;;;;;;;;;;5047346;28;20459;-82
2020/12/24 05:43:23;;;;;;;2.08;0.90;;;;;;;;;;5048223;28;20411;-82
2020/12/24 05:45:49;;;;;;;2.73;1.03;;;;;;;;;;5067997;28;20414;-81
2020/12/24 05:48:15;;;;;;;2.28;0.90;;;;;;;;;;5048664;28;20406;-81
2020/12/24 05:50:43;;;;;;;4.60;1.10;;;;;;;;;;5048745;28;20843;-81
2020/12/24 05:53:13;;;;;;;2.33;0.88;;;;;;;;;;5045464;28;20814;-81
2020/12/24 05:55:40;;;;;;;2.45;0.90;;;;;;;;;;5067497;28;20424;-81
2020/12/24 05:58:09;;;;;;;2.80;1.20;;;;;;;;;;5065410;28;20453;-81
2020/12/24 06:00:36;;;;;;;2.50;1.00;;;;;;;;;;5049357;28;20474;-81
2020/12/24 06:03:10;;;;;;;2.72;1.10;;;;;;;;;;5066685;28;20413;-81
2020/12/24 06:05:45;;;;;;;2.40;1.00;;;;;;;;;;5049370;28;20562;-81
2020/12/24 06:08:17;;;;;;;2.63;1.10;;;;;;;;;;5048746;28;20509;-81
2020/12/24 06:10:46;;;;;;;2.87;1.00;;;;;;;;;;5066936;28;20882;-81
2020/12/24 06:13:16;;;;;;;3.15;1.10;;;;;;;;;;5048106;28;20415;-81
2020/12/24 06:15:44;;;;;;;3.92;1.10;;;;;;;;;;5043718;28;20401;-81
2020/12/24 06:18:14;;;;;;;3.42;1.25;;;;;;;;;;5065626;28;20883;-81
2020/12/24 06:20:44;;;;;;;5.28;1.35;;;;;;;;;;5053894;28;20418;-81
2020/12/24 06:23:11;;;;;;;4.82;1.20;;;;;;;;;;5044516;28;20565;-81
2020/12/24 06:25:37;;;;;;;2.50;1.20;;;;;;;;;;5048799;28;20788;-81
2020/12/24 06:28:04;;;;;;;2.85;1.05;;;;;;;;;;5047364;28;20412;-81
2020/12/24 06:30:30;;;;;;;2.15;1.10;;;;;;;;;;5047694;28;20454;-81
2020/12/24 06:32:56;;;;;;;3.40;1.38;;;;;;;;;;5062656;28;20399;-81
2020/12/24 06:35:31;;;;;;;6.35;1.58;;;;;;;;;;5066188;28;20782;-80
2020/12/24 06:37:57;;;;;;;3.88;1.20;;;;;;;;;;5048101;28;20451;-81
2020/12/24 06:40:32;;;;;;;3.53;1.20;;;;;;;;;;5065703;28;20905;-80
2020/12/24 06:42:58;;;;;;;3.47;1.13;;;;;;;;;;5069743;28;20474;-81
2020/12/24 06:45:31;;;;;;;2.13;1.15;;;;;;;;;;5047832;28;20688;-81
2020/12/24 06:48:14;;;;;;;3.92;1.10;;;;;;;;;;5048844;28;20443;-82
2020/12/24 06:50:41;;;;;;;1.48;0.90;;;;;;;;;;5058614;28;20446;-81
2020/12/24 06:53:25;;;;;;;2.60;1.00;;;;;;;;;;5068386;28;20410;-82
2020/12/24 06:56:19;;;;;;;2.40;1.20;;;;;;;;;;5039967;28;20475;-81
2020/12/24 06:58:45;;;;;;;3.53;1.15;;;;;;;;;;5039164;28;20927;-82
2020/12/24 07:01:14;;;;;;;2.55;1.30;;;;;;;;;;5073924;28;20406;-82
2020/12/24 07:03:40;;;;;;;2.40;1.08;;;;;;;;;;5053751;28;20388;-82
2020/12/24 07:06:06;;;;;;;1.80;1.00;;;;;;;;;;5065362;28;20403;-81
2020/12/24 07:08:32;;;;;;;2.50;1.08;;;;;;;;;;5064470;28;20798;-82
2020/12/24 07:10:59;;;;;;;4.20;1.00;;;;;;;;;;5043134;28;20396;-82
2020/12/24 07:13:38;;;;;;;3.83;1.20;;;;;;;;;;5051012;28;20428;-81
2020/12/24 07:16:05;;;;;;;3.10;1.02;;;;;;;;;;5059259;28;21113;-81
2020/12/24 07:18:32;;;;;;;2.72;1.00;;;;;;;;;;5064110;28;20392;-81
2020/12/24 07:21:02;;;;;;;3.20;1.30;;;;;;;;;;5063385;28;20797;-81
2020/12/24 07:23:30;;;;;;;2.83;1.30;;;;;;;;;;5046402;28;20419;-82
2020/12/24 07:25:56;;;;;;;3.67;1.60;;;;;;;;;;5053121;28;20887;-81
2020/12/24 07:28:22;;;;;;;3.65;1.48;;;;;;;;;;5053415;28;20801;-81
2020/12/24 07:31:02;;;;;;;3.00;1.47;;;;;;;;;;5071254;28;20408;-81
2020/12/24 07:33:28;;;;;;;3.10;1.40;;;;;;;;;;5041173;28;20550;-81
2020/12/24 07:35:54;;;;;;;4.50;1.45;;;;;;;;;;5053406;28;20770;-81
2020/12/24 07:38:21;;;;;;;4.43;1.80;;;;;;;;;;5050356;28;20471;-81
2020/12/24 07:40:47;;;;;;;6.70;1.83;;;;;;;;;;5066561;28;20379;-81
2020/12/24 07:43:13;;;;;;;4.13;1.65;;;;;;;;;;5047559;28;20384;-81
2020/12/24 07:45:40;;;;;;;3.78;1.65;;;;;;;;;;5065680;28;20407;-81
2020/12/24 07:48:16;;;;;;;4.38;1.55;;;;;;;;;;5047770;28;20874;-81
2020/12/24 07:50:42;;;;;;;3.38;1.70;;;;;;;;;;5047701;28;20993;-80
2020/12/24 07:53:09;;;;;;;4.38;1.88;;;;;;;;;;5063858;28;20901;-81
2020/12/24 07:55:35;;;;;;;3.38;1.60;;;;;;;;;;5048074;28;20382;-81
2020/12/24 07:58:12;;;;;;;2.67;1.57;;;;;;;;;;5047624;28;20388;-81
2020/12/24 08:00:47;;;;;;;3.63;1.70;;;;;;;;;;5047478;28;20448;-81
2020/12/24 08:03:17;;;;;;;3.00;1.42;;;;;;;;;;5047710;28;20407;-81
2020/12/24 08:05:47;;;;;;;3.83;1.70;;;;;;;;;;5079856;28;20420;-81
2020/12/24 08:08:14;;;;;;;4.00;1.80;;;;;;;;;;5065617;28;20420;-80
2020/12/24 08:10:39;;;;;;;5.45;2.10;;;;;;;;;;5065151;28;20426;-81
2020/12/24 08:13:06;;;;;;;4.37;1.93;;;;;;;;;;5047434;28;20376;-81
2020/12/24 08:15:33;;;;;;;4.93;1.93;;;;;;;;;;5065878;28;20758;-80
2020/12/24 08:18:01;;;;;;;4.07;2.10;;;;;;;;;;5033886;28;20793;-80
2020/12/24 08:20:31;;;;;;;3.97;2.55;;;;;;;;;;5047403;28;20387;-81
2020/12/24 08:23:02;;;;;;;4.07;2.13;;;;;;;;;;5045425;28;20383;-81
2020/12/24 08:25:28;;;;;;;5.80;2.67;;;;;;;;;;5061944;28;20498;-81
2020/12/24 08:27:54;;;;;;;4.65;2.45;;;;;;;;;;5031820;28;20382;-81
2020/12/24 08:30:21;;;;;;;4.88;2.10;;;;;;;;;;5062162;28;20379;-81
2020/12/24 08:32:47;;;;;;;5.22;2.03;;;;;;;;;;5047025;28;20462;-81
2020/12/24 08:35:14;;;;;;;4.93;2.15;;;;;;;;;;5047437;28;20457;-81
2020/12/24 08:37:40;;;;;;;4.70;2.10;;;;;;;;;;5046801;28;20591;-81
2020/12/24 08:40:38;;;;;;;4.55;2.30;;;;;;;;;;5065412;28;20471;-80
2020/12/24 08:43:06;;;;;;;4.63;2.10;;;;;;;;;;5003502;28;20416;-81
2020/12/24 08:45:32;;;;;;;3.80;1.58;;;;;;;;;;5047181;28;20440;-81
2020/12/24 08:47:58;;;;;;;4.60;1.90;;;;;;;;;;5047146;28;20580;-81
2020/12/24 08:50:30;;;;;;;5.45;2.03;;;;;;;;;;5048361;28;20376;-80
2020/12/24 08:52:57;;;;;;;3.35;1.80;;;;;;;;;;5066838;28;20496;-81
2020/12/24 08:55:27;;;;;;;4.63;2.10;;;;;;;;;;5068723;28;20467;-81
2020/12/24 08:57:53;;;;;;;6.10;2.20;;;;;;;;;;5050730;28;20428;-81
2020/12/24 09:00:19;;;;;;;4.47;2.03;;;;;;;;;;5068311;28;20455;-81
2020/12/24 09:02:45;;;;;;;5.90;2.38;;;;;;;;;;5050549;28;20460;-81
2020/12/24 09:05:12;;;;;;;5.95;2.28;;;;;;;;;;5068581;28;20845;-80
2020/12/24 09:07:44;;;;;;;4.50;2.15;;;;;;;;;;5050504;28;20474;-81
2020/12/24 09:10:20;;;;;;;6.70;2.92;;;;;;;;;;5068370;28;20449;-80
2020/12/24 09:12:46;;;;;;;7.38;3.15;;;;;;;;;;5050031;28;20461;-80
2020/12/24 09:15:16;;;;;;;7.03;3.00;;;;;;;;;;5067982;28;20411;-83
2020/12/24 09:17:49;;;;;;;6.47;2.60;;;;;;;;;;5068620;28;20422;-83
2020/12/24 09:20:22;;;;;;;6.95;3.17;;;;;;;;;;5069379;28;20395;-82
2020/12/24 09:22:52;;;;;;;8.32;3.15;;;;;;;;;;5047432;28;21185;-83
2020/12/24 09:25:28;;;;;;;8.85;3.90;;;;;;;;;;5049797;28;20444;-83
2020/12/24 09:27:54;;;;;;;11.15;3.75;;;;;;;;;;5048790;28;20756;-83
2020/12/24 09:30:20;;;;;;;8.75;3.30;;;;;;;;;;5050515;28;20391;-84
2020/12/24 09:32:54;;;;;;;8.45;3.40;;;;;;;;;;5050264;28;20392;-84
2020/12/24 09:35:20;;;;;;;9.13;3.30;;;;;;;;;;5050725;28;20495;-83
2020/12/24 09:37:46;;;;;;;8.02;2.95;;;;;;;;;;5066542;28;20396;-83
2020/12/24 09:40:12;;;;;;;7.55;3.03;;;;;;;;;;5044003;28;20384;-83
2020/12/24 09:42:38;;;;;;;5.75;2.90;;;;;;;;;;5054498;28;20763;-83
2020/12/24 09:45:05;;;;;;;6.82;2.70;;;;;;;;;;5049003;28;20713;-83
2020/12/24 09:47:30;;;;;;;10.35;3.15;;;;;;;;;;5068233;28;20712;-83
2020/12/24 09:49:56;;;;;;;17.38;3.35;;;;;;;;;;5068194;28;20576;-83
2020/12/24 09:52:22;;;;;;;9.73;2.90;;;;;;;;;;5065737;28;20450;-84
2020/12/24 09:54:48;;;;;;;10.43;3.03;;;;;;;;;;5068254;28;20922;-83
2020/12/24 09:57:14;;;;;;;10.88;3.10;;;;;;;;;;5050399;28;20794;-84
2020/12/24 09:59:40;;;;;;;13.93;3.60;;;;;;;;;;5068008;28;20390;-82
2020/12/24 10:02:07;;;;;;;11.43;3.17;;;;;;;;;;5048577;28;20419;-82
2020/12/24 10:04:33;;;;;;;9.13;2.97;;;;;;;;;;5067363;28;20449;-83
2020/12/24 10:06:58;;;;;;;9.85;2.70;;;;;;;;;;5067953;28;20798;-83
2020/12/24 10:09:24;;;;;;;8.80;3.20;;;;;;;;;;5068357;28;20513;-83
2020/12/24 10:11:50;;;;;;;11.73;3.13;;;;;;;;;;5067240;28;20407;-83
2020/12/24 10:14:16;;;;;;;12.10;3.17;;;;;;;;;;5049570;28;20465;-83
2020/12/24 10:16:43;;;;;;;11.38;3.25;;;;;;;;;;5067250;28;20403;-83
2020/12/24 10:19:09;;;;;;;9.85;2.80;;;;;;;;;;5067143;28;20371;-84
2020/12/24 10:21:35;;;;;;;11.13;3.00;;;;;;;;;;5049480;28;20453;-84
2020/12/24 10:24:01;;;;;;;11.77;2.80;;;;;;;;;;5047566;28;20414;-84
2020/12/24 10:26:27;;;;;;;13.07;3.45;;;;;;;;;;5049155;28;20928;-84
2020/12/24 10:28:52;;;;;;;14.48;3.05;;;;;;;;;;5049581;28;20383;-85
2020/12/24 10:31:18;;;;;;;8.77;2.42;;;;;;;;;;5067388;28;20454;-84
2020/12/24 10:33:44;;;;;;;18.17;3.33;;;;;;;;;;5067167;28;20375;-85
2020/12/24 10:36:10;;;;;;;11.82;2.70;;;;;;;;;;5066598;28;20372;-84
2020/12/24 10:38:36;;;;;;;13.27;2.88;;;;;;;;;;5050024;28;21234;-85
2020/12/24 10:41:02;;;;;;;11.05;2.50;;;;;;;;;;5048433;28;20403;-83
2020/12/24 10:43:28;;;;;;;9.95;2.80;;;;;;;;;;5048977;28;20398;-83
2020/12/24 10:45:54;;;;;;;11.85;2.85;;;;;;;;;;5049083;28;20404;-80
2020/12/24 10:48:20;;;;;;;11.95;2.50;;;;;;;;;;5048508;28;20387;-80
2020/12/24 10:50:46;;;;;;;12.80;3.00;;;;;;;;;;5048323;28;20407;-80
2020/12/24 10:53:13;;;;;;;13.37;2.87;;;;;;;;;;5046401;28;20720;-80
2020/12/24 10:55:38;;;;;;;17.38;3.53;;;;;;;;;;5048440;28;20383;-80
2020/12/24 10:58:04;;;;;;;12.20;2.77;;;;;;;;;;5048459;28;20387;-80
2020/12/24 11:00:30;;;;;;;10.98;2.72;;;;;;;;;;5062263;28;20417;-80
2020/12/24 11:02:56;;;;;;;13.50;2.55;;;;;;;;;;5066331;28;20387;-80
2020/12/24 11:05:25;;;;;;;12.00;2.93;;;;;;;;;;5066306;28;20426;-80
2020/12/24 11:07:52;;;;;;;13.40;2.78;;;;;;;;;;5048453;28;20467;-80
2020/12/24 11:10:18;;;;;;;13.52;2.92;;;;;;;;;;5047962;28;20472;-80
2020/12/24 11:12:44;;;;;;;13.70;2.73;;;;;;;;;;5065645;28;20387;-80
2020/12/24 11:15:10;;;;;;;16.08;3.20;;;;;;;;;;5048217;28;20379;-80
2020/12/24 11:17:36;;;;;;;13.85;3.17;;;;;;;;;;5047953;28;20423;-80
2020/12/24 11:20:02;;;;;;;16.70;3.33;;;;;;;;;;5066705;28;20371;-80
2020/12/24 11:22:30;;;;;;;13.27;2.47;;;;;;;;;;5063796;28;20387;-80
2020/12/24 11:24:56;;;;;;;15.13;2.78;;;;;;;;;;5048208;28;20379;-80
2020/12/24 11:27:22;;;;;;;14.77;2.85;;;;;;;;;;5047576;28;20392;-80
2020/12/24 11:29:48;;;;;;;14.43;2.90;;;;;;;;;;5065852;28;20407;-80
2020/12/24 11:32:14;;;;;;;12.85;2.65;;;;;;;;;;5047835;28;20396;-80
2020/12/24 11:34:41;;;;;;;16.45;3.08;;;;;;;;;;5065018;28;20495;-80
2020/12/24 11:37:07;;;;;;;16.13;3.10;;;;;;;;;;5047779;28;20822;-80
2020/12/24 11:39:33;;;;;;;12.77;2.50;;;;;;;;;;5047936;28;20379;-80
2020/12/24 11:41:59;;;;;;;8.05;2.10;;;;;;;;;;5048044;28;20408;-80
2020/12/24 11:44:25;;;;;;;12.60;2.72;;;;;;;;;;5065552;28;20430;-80
2020/12/24 11:46:51;;;;;;;14.18;3.15;;;;;;;;;;5065774;28;20445;-80
2020/12/24 11:49:17;;;;;;;14.48;2.70;;;;;;;;;;5065782;28;20847;-80
2020/12/24 11:51:43;;;;;;;11.33;2.07;;;;;;;;;;5046508;28;20933;-80
2020/12/24 11:54:09;;;;;;;16.42;3.05;;;;;;;;;;5047249;28;20372;-80
2020/12/24 11:56:35;;;;;;;15.00;2.47;;;;;;;;;;5047566;28;20402;-80
2020/12/24 11:59:01;;;;;;;15.50;2.83;;;;;;;;;;5047354;28;20442;-80
2020/12/24 12:01:27;;;;;;;12.27;2.70;;;;;;;;;;5047538;28;20411;-80
2020/12/24 12:03:53;;;;;;;11.80;2.53;;;;;;;;;;5047357;28;20391;-80
2020/12/24 12:06:19;;;;;;;13.27;2.53;;;;;;;;;;5047609;28;20721;-80
2020/12/24 12:08:46;;;;;;;13.63;2.53;;;;;;;;;;5047701;28;20414;-80
2020/12/24 12:11:12;;;;;;;12.43;2.33;;;;;;;;;;5047213;28;20533;-80
2020/12/24 12:13:38;;;;;;;13.57;2.80;;;;;;;;;;5047532;28;20396;-80
2020/12/24 12:16:07;;;;;;;11.85;2.58;;;;;;;;;;5047526;28;20925;-80
2020/12/24 12:18:33;;;;;;;13.88;2.63;;;;;;;;;;5065131;28;20585;-80
2020/12/24 12:20:59;;;;;;;18.20;2.67;;;;;;;;;;5047375;28;20413;-80
2020/12/24 12:23:25;;;;;;;10.13;2.58;;;;;;;;;;5045559;28;20863;-81
2020/12/24 12:25:52;;;;;;;13.27;2.50;;;;;;;;;;5063716;28;20452;-80
2020/12/24 12:28:18;;;;;;;15.40;3.53;;;;;;;;;;5041971;28;20407;-80
2020/12/24 12:30:44;;;;;;;12.77;3.13;;;;;;;;;;5049135;28;20762;-79
2020/12/24 12:33:10;;;;;;;16.23;2.55;;;;;;;;;;5046977;28;20654;-79
2020/12/24 12:35:35;;;;;;;13.85;2.75;;;;;;;;;;5068465;28;20398;-79
2020/12/24 12:38:01;;;;;;;16.63;3.13;;;;;;;;;;5062716;28;20395;-79
2020/12/24 12:40:27;;;;;;;13.95;2.15;;;;;;;;;;5065868;28;20926;-79
2020/12/24 12:42:54;;;;;;;13.98;2.65;;;;;;;;;;5049134;28;20403;-79
2020/12/24 12:45:20;;;;;;;10.98;2.50;;;;;;;;;;5043639;28;20418;-79
2020/12/24 12:47:46;;;;;;;13.85;2.63;;;;;;;;;;5054108;28;20384;-79
2020/12/24 12:50:14;;;;;;;14.30;2.50;;;;;;;;;;5072632;28;20455;-80
2020/12/24 12:52:40;;;;;;;15.77;2.83;;;;;;;;;;5070724;28;20806;-79
2020/12/24 12:55:06;;;;;;;11.20;2.60;;;;;;;;;;5065159;28;20434;-79
2020/12/24 12:57:35;;;;;;;11.15;2.35;;;;;;;;;;5053807;28;20403;-79
2020/12/24 13:00:08;;;;;;;14.55;2.60;;;;;;;;;;5066855;28;20500;-78
2020/12/24 13:02:34;;;;;;;12.73;2.83;;;;;;;;;;5078880;28;20455;-79
2020/12/24 13:05:00;;;;;;;17.33;2.95;;;;;;;;;;5078963;28;20402;-79
2020/12/24 13:07:26;;;;;;;12.15;2.28;;;;;;;;;;5055579;28;20850;-79
2020/12/24 13:09:52;;;;;;;11.18;2.03;;;;;;;;;;5065440;28;20401;-78
2020/12/24 13:12:18;;;;;;;14.10;2.58;;;;;;;;;;5067876;28;20521;-79
2020/12/24 13:14:44;;;;;;;13.80;2.50;;;;;;;;;;5065764;28;20396;-79
2020/12/24 13:17:10;;;;;;;12.02;2.60;;;;;;;;;;5065539;28;20872;-79
2020/12/24 13:19:36;;;;;;;14.00;2.65;;;;;;;;;;5040356;28;20404;-79
2020/12/24 13:22:02;;;;;;;15.60;2.78;;;;;;;;;;5045489;28;20416;-81
2020/12/24 13:24:45;;;;;;;14.75;2.45;;;;;;;;;;5051403;28;20738;-80
2020/12/24 13:27:11;;;;;;;11.50;2.42;;;;;;;;;;5069133;28;20862;-81
2020/12/24 13:29:37;;;;;;;12.07;2.45;;;;;;;;;;5050289;28;20407;-81
2020/12/24 13:32:03;;;;;;;16.27;2.78;;;;;;;;;;5051529;28;20499;-79
2020/12/24 13:34:29;;;;;;;14.02;2.60;;;;;;;;;;5051666;28;20391;-80
2020/12/24 13:36:55;;;;;;;15.80;2.67;;;;;;;;;;5049436;28;20793;-79
2020/12/24 13:39:21;;;;;;;15.48;2.65;;;;;;;;;;5043158;28;20455;-80
2020/12/24 13:41:50;;;;;;;13.75;2.42;;;;;;;;;;5044602;28;20896;-80
2020/12/24 13:44:17;;;;;;;8.93;2.00;;;;;;;;;;5040976;28;20410;-80
2020/12/24 13:46:50;;;;;;;13.70;3.10;;;;;;;;;;5042246;28;20444;-80
2020/12/24 13:49:16;;;;;;;10.98;2.58;;;;;;;;;;5037305;28;21578;-80
2020/12/24 13:51:42;;;;;;;11.65;2.10;;;;;;;;;;5062106;28;20495;-80
2020/12/24 13:54:08;;;;;;;13.25;2.53;;;;;;;;;;5062066;28;20490;-80
2020/12/24 13:56:34;;;;;;;10.27;2.08;;;;;;;;;;5062000;28;20450;-80
2020/12/24 13:59:02;;;;;;;11.13;1.85;;;;;;;;;;5043784;28;20410;-80
2020/12/24 14:01:28;;;;;;;9.88;1.88;;;;;;;;;;5047440;28;20962;-83
2020/12/24 14:03:53;;;;;;;9.45;2.20;;;;;;;;;;5069078;28;20403;-79
2020/12/24 14:06:19;;;;;;;10.68;1.98;;;;;;;;;;5072753;28;20384;-79
2020/12/24 14:08:45;;;;;;;10.60;2.28;;;;;;;;;;5072638;28;20412;-79
2020/12/24 14:11:16;;;;;;;10.67;2.00;;;;;;;;;;5069187;28;20471;-79
2020/12/24 14:13:42;;;;;;;9.95;1.98;;;;;;;;;;5049010;28;20827;-79
2020/12/24 14:16:08;;;;;;;13.00;2.40;;;;;;;;;;5049695;28;20376;-79
2020/12/24 14:18:34;;;;;;;13.17;2.50;;;;;;;;;;5066960;28;20379;-79
2020/12/24 14:21:01;;;;;;;11.38;2.35;;;;;;;;;;5067018;28;20466;-79
2020/12/24 14:23:28;;;;;;;11.05;2.03;;;;;;;;;;5065434;28;20471;-80
2020/12/24 14:25:54;;;;;;;12.75;2.40;;;;;;;;;;5048962;28;20427;-79
2020/12/24 14:28:20;;;;;;;11.77;3.03;;;;;;;;;;5049202;28;20763;-80
2020/12/24 14:30:46;;;;;;;14.27;2.43;;;;;;;;;;5067136;28;20407;-79
2020/12/24 14:33:12;;;;;;;15.57;3.25;;;;;;;;;;5066913;28;20463;-80
2020/12/24 14:35:38;;;;;;;15.88;3.33;;;;;;;;;;5049272;28;20380;-79
2020/12/24 14:38:04;;;;;;;11.43;2.50;;;;;;;;;;5048884;28;20399;-80